sensor_id;sensor_type;location;lat;lon;timestamp;temperature;humidity
52167;DHT22;38149;52.666;6.428;2022-08-04T00:01:44;23.30;99.90
52167;DHT22;38149;52.666;6.428;2022-08-04T00:07:18;23.20;99.90
52167;DHT22;38149;52.666;6.428;2022-08-04T00:10:05;24.10;99.90
52167;DHT22;38149;52.666;6.428;2022-08-04T00:12:33;23.60;99.90
52167;DHT22;38149;52.666;6.428;2022-08-04T00:15:04;23.10;99.90
52167;DHT22;38149;52.666;6.428;2022-08-04T00:17:38;23.00;99.90
52167;DHT22;38149;52.666;6.428;2022-08-04T00:20:08;23.00;99.90
52167;DHT22;38149;52.666;6.428;2022-08-04T00:22:38;23.00;99.90
52167;DHT22;38149;52.666;6.428;2022-08-04T00:25:05;23.00;99.90
52167;DHT22;38149;52.666;6.428;2022-08-04T00:29:58;23.00;99.90
52167;DHT22;38149;52.666;6.428;2022-08-04T00:34:57;22.90;99.90
52167;DHT22;38149;52.666;6.428;2022-08-04T00:37:25;23.40;99.90
52167;DHT22;38149;52.666;6.428;2022-08-04T00:39:55;22.80;99.90
52167;DHT22;38149;52.666;6.428;2022-08-04T00:45:30;22.90;99.90
52167;DHT22;38149;52.666;6.428;2022-08-04T01:02:17;22.80;99.90
52167;DHT22;38149;52.666;6.428;2022-08-04T01:16:04;22.60;99.90
52167;DHT22;38149;52.666;6.428;2022-08-04T01:37:56;22.50;99.90
52167;DHT22;38149;52.666;6.428;2022-08-04T01:40:30;22.80;99.90
52167;DHT22;38149;52.666;6.428;2022-08-04T01:42:58;22.50;99.90
52167;DHT22;38149;52.666;6.428;2022-08-04T01:45:25;22.30;99.90
52167;DHT22;38149;52.666;6.428;2022-08-04T01:47:54;22.30;99.90
52167;DHT22;38149;52.666;6.428;2022-08-04T02:00:21;22.10;99.90
52167;DHT22;38149;52.666;6.428;2022-08-04T02:02:52;22.20;99.90
52167;DHT22;38149;52.666;6.428;2022-08-04T02:05:21;22.20;99.90
52167;DHT22;38149;52.666;6.428;2022-08-04T02:08:20;22.40;99.90
52167;DHT22;38149;52.666;6.428;2022-08-04T02:22:06;21.90;99.90
52167;DHT22;38149;52.666;6.428;2022-08-04T02:24:49;22.20;99.90
52167;DHT22;38149;52.666;6.428;2022-08-04T02:27:16;22.10;99.90
52167;DHT22;38149;52.666;6.428;2022-08-04T02:32:29;21.60;99.90
52167;DHT22;38149;52.666;6.428;2022-08-04T02:38:00;21.70;99.90
52167;DHT22;38149;52.666;6.428;2022-08-04T02:40:31;21.80;99.90
52167;DHT22;38149;52.666;6.428;2022-08-04T02:43:01;22.10;99.90
52167;DHT22;38149;52.666;6.428;2022-08-04T02:45:31;21.80;99.90
52167;DHT22;38149;52.666;6.428;2022-08-04T02:48:02;21.60;99.90
52167;DHT22;38149;52.666;6.428;2022-08-04T02:50:33;21.60;99.90
52167;DHT22;38149;52.666;6.428;2022-08-04T02:55:32;21.40;99.90
52167;DHT22;38149;52.666;6.428;2022-08-04T03:20:04;21.40;99.90
52167;DHT22;38149;52.666;6.428;2022-08-04T03:49:36;20.90;99.90
52167;DHT22;38149;52.666;6.428;2022-08-04T03:52:18;20.90;99.90
52167;DHT22;38149;52.666;6.428;2022-08-04T04:12:28;20.80;99.90
52167;DHT22;38149;52.666;6.428;2022-08-04T04:26:58;20.80;99.90
52167;DHT22;38149;52.666;6.428;2022-08-04T04:33:00;20.50;99.90
52167;DHT22;38149;52.666;6.428;2022-08-04T04:56:15;20.40;99.90
52167;DHT22;38149;52.666;6.428;2022-08-04T04:58:43;20.40;99.90
52167;DHT22;38149;52.666;6.428;2022-08-04T05:04:28;20.40;99.90
52167;DHT22;38149;52.666;6.428;2022-08-04T05:07:20;20.50;99.90
52167;DHT22;38149;52.666;6.428;2022-08-04T05:16:01;20.70;99.90
52167;DHT22;38149;52.666;6.428;2022-08-04T05:18:43;20.40;99.90
52167;DHT22;38149;52.666;6.428;2022-08-04T05:21:22;20.50;99.90
52167;DHT22;38149;52.666;6.428;2022-08-04T05:24:01;20.60;99.90
52167;DHT22;38149;52.666;6.428;2022-08-04T05:26:32;20.50;99.90
52167;DHT22;38149;52.666;6.428;2022-08-04T05:29:08;20.60;99.90
52167;DHT22;38149;52.666;6.428;2022-08-04T05:31:44;20.70;99.90
52167;DHT22;38149;52.666;6.428;2022-08-04T05:37:10;20.60;99.90
52167;DHT22;38149;52.666;6.428;2022-08-04T05:39:46;20.70;99.90
52167;DHT22;38149;52.666;6.428;2022-08-04T05:42:14;20.70;99.90
52167;DHT22;38149;52.666;6.428;2022-08-04T05:44:42;20.70;99.90
52167;DHT22;38149;52.666;6.428;2022-08-04T05:47:10;20.80;99.90
52167;DHT22;38149;52.666;6.428;2022-08-04T05:59:30;21.00;99.90
52167;DHT22;38149;52.666;6.428;2022-08-04T06:06:59;21.20;99.90
52167;DHT22;38149;52.666;6.428;2022-08-04T06:09:25;21.20;99.90
52167;DHT22;38149;52.666;6.428;2022-08-04T06:11:52;21.20;99.90
52167;DHT22;38149;52.666;6.428;2022-08-04T06:14:21;21.30;99.90
52167;DHT22;38149;52.666;6.428;2022-08-04T06:16:48;21.20;99.90
52167;DHT22;38149;52.666;6.428;2022-08-04T06:19:16;21.80;99.90
52167;DHT22;38149;52.666;6.428;2022-08-04T06:21:46;21.30;99.90
52167;DHT22;38149;52.666;6.428;2022-08-04T06:24:17;21.40;99.90
52167;DHT22;38149;52.666;6.428;2022-08-04T06:29:19;21.60;99.90
52167;DHT22;38149;52.666;6.428;2022-08-04T06:31:56;21.70;99.90
52167;DHT22;38149;52.666;6.428;2022-08-04T06:34:24;21.60;99.90
52167;DHT22;38149;52.666;6.428;2022-08-04T06:36:51;21.80;99.90
52167;DHT22;38149;52.666;6.428;2022-08-04T06:39:20;21.80;99.90
52167;DHT22;38149;52.666;6.428;2022-08-04T06:41:49;21.80;99.90
52167;DHT22;38149;52.666;6.428;2022-08-04T06:44:16;22.00;99.90
52167;DHT22;38149;52.666;6.428;2022-08-04T06:46:43;21.90;99.90
52167;DHT22;38149;52.666;6.428;2022-08-04T06:49:10;21.90;99.90
52167;DHT22;38149;52.666;6.428;2022-08-04T06:51:37;22.00;99.90
52167;DHT22;38149;52.666;6.428;2022-08-04T06:54:04;22.10;99.90
52167;DHT22;38149;52.666;6.428;2022-08-04T06:56:30;22.20;99.90
52167;DHT22;38149;52.666;6.428;2022-08-04T06:59:01;22.30;99.90
52167;DHT22;38149;52.666;6.428;2022-08-04T07:01:29;22.40;99.90
52167;DHT22;38149;52.666;6.428;2022-08-04T07:03:55;22.50;99.90
52167;DHT22;38149;52.666;6.428;2022-08-04T07:06:22;22.60;99.90
52167;DHT22;38149;52.666;6.428;2022-08-04T07:08:50;22.70;99.90
52167;DHT22;38149;52.666;6.428;2022-08-04T07:11:17;22.80;99.90
52167;DHT22;38149;52.666;6.428;2022-08-04T07:13:44;23.00;99.90
52167;DHT22;38149;52.666;6.428;2022-08-04T07:16:13;23.10;99.90
52167;DHT22;38149;52.666;6.428;2022-08-04T07:26:03;23.10;99.90
52167;DHT22;38149;52.666;6.428;2022-08-04T07:28:29;23.40;99.90
52167;DHT22;38149;52.666;6.428;2022-08-04T07:33:23;23.70;99.90
52167;DHT22;38149;52.666;6.428;2022-08-04T07:35:53;23.60;99.90
52167;DHT22;38149;52.666;6.428;2022-08-04T07:40:46;23.90;99.90
52167;DHT22;38149;52.666;6.428;2022-08-04T07:43:14;24.20;99.90
52167;DHT22;38149;52.666;6.428;2022-08-04T07:45:41;23.90;99.90
52167;DHT22;38149;52.666;6.428;2022-08-04T07:48:08;24.00;99.90
52167;DHT22;38149;52.666;6.428;2022-08-04T07:50:36;24.10;99.90
52167;DHT22;38149;52.666;6.428;2022-08-04T07:53:03;24.10;99.90
52167;DHT22;38149;52.666;6.428;2022-08-04T07:55:30;24.20;99.90
52167;DHT22;38149;52.666;6.428;2022-08-04T07:57:56;24.40;99.90
52167;DHT22;38149;52.666;6.428;2022-08-04T08:00:22;24.40;99.90
52167;DHT22;38149;52.666;6.428;2022-08-04T08:02:49;24.20;99.90
52167;DHT22;38149;52.666;6.428;2022-08-04T08:05:17;24.50;99.90
52167;DHT22;38149;52.666;6.428;2022-08-04T08:07:47;24.50;99.90
52167;DHT22;38149;52.666;6.428;2022-08-04T08:10:14;24.60;99.90
52167;DHT22;38149;52.666;6.428;2022-08-04T08:24:59;25.10;99.90
52167;DHT22;38149;52.666;6.428;2022-08-04T08:29:52;25.10;99.90
52167;DHT22;38149;52.666;6.428;2022-08-04T09:16:40;26.40;99.90
52167;DHT22;38149;52.666;6.428;2022-08-04T09:20:00;26.50;99.90
52167;DHT22;38149;52.666;6.428;2022-08-04T09:30:09;26.90;99.90
52167;DHT22;38149;52.666;6.428;2022-08-04T09:38:45;27.10;99.90
52167;DHT22;38149;52.666;6.428;2022-08-04T09:49:59;27.30;99.90
52167;DHT22;38149;52.666;6.428;2022-08-04T09:58:45;27.30;99.90
52167;DHT22;38149;52.666;6.428;2022-08-04T10:01:19;27.30;99.90
52167;DHT22;38149;52.666;6.428;2022-08-04T10:03:50;27.40;99.90
52167;DHT22;38149;52.666;6.428;2022-08-04T10:06:41;27.40;99.90
52167;DHT22;38149;52.666;6.428;2022-08-04T10:12:46;27.00;99.90
52167;DHT22;38149;52.666;6.428;2022-08-04T10:23:37;27.10;99.90
52167;DHT22;38149;52.666;6.428;2022-08-04T10:34:19;27.10;99.90
52167;DHT22;38149;52.666;6.428;2022-08-04T10:36:51;27.00;99.90
52167;DHT22;38149;52.666;6.428;2022-08-04T10:39:24;27.20;99.90
52167;DHT22;38149;52.666;6.428;2022-08-04T10:47:28;27.30;99.90
52167;DHT22;38149;52.666;6.428;2022-08-04T10:50:02;27.00;99.90
52167;DHT22;38149;52.666;6.428;2022-08-04T11:03:00;27.30;99.90
52167;DHT22;38149;52.666;6.428;2022-08-04T11:05:51;27.20;99.90
52167;DHT22;38149;52.666;6.428;2022-08-04T11:08:26;27.20;99.90
52167;DHT22;38149;52.666;6.428;2022-08-04T11:11:11;27.30;99.90
52167;DHT22;38149;52.666;6.428;2022-08-04T11:14:18;27.30;99.90
52167;DHT22;38149;52.666;6.428;2022-08-04T11:16:46;27.30;99.90
52167;DHT22;38149;52.666;6.428;2022-08-04T11:22:10;27.40;99.90
52167;DHT22;38149;52.666;6.428;2022-08-04T11:28:08;27.40;99.90
52167;DHT22;38149;52.666;6.428;2022-08-04T11:52:37;27.20;99.90
52167;DHT22;38149;52.666;6.428;2022-08-04T11:55:09;27.30;99.90
52167;DHT22;38149;52.666;6.428;2022-08-04T11:57:36;27.10;99.90
52167;DHT22;38149;52.666;6.428;2022-08-04T12:00:09;27.00;99.90
52167;DHT22;38149;52.666;6.428;2022-08-04T12:05:30;27.10;99.90
52167;DHT22;38149;52.666;6.428;2022-08-04T12:19:51;26.60;99.90
52167;DHT22;38149;52.666;6.428;2022-08-04T12:22:24;26.60;99.90
52167;DHT22;38149;52.666;6.428;2022-08-04T12:25:07;26.80;99.90
52167;DHT22;38149;52.666;6.428;2022-08-04T12:27:39;26.50;99.90
52167;DHT22;38149;52.666;6.428;2022-08-04T12:30:10;26.40;99.90
52167;DHT22;38149;52.666;6.428;2022-08-04T12:32:41;26.30;99.90
52167;DHT22;38149;52.666;6.428;2022-08-04T12:35:39;26.20;99.90
52167;DHT22;38149;52.666;6.428;2022-08-04T12:38:12;26.20;99.90
52167;DHT22;38149;52.666;6.428;2022-08-04T12:45:54;26.30;99.90
52167;DHT22;38149;52.666;6.428;2022-08-04T12:48:23;26.40;99.90
52167;DHT22;38149;52.666;6.428;2022-08-04T12:50:55;26.10;99.90
52167;DHT22;38149;52.666;6.428;2022-08-04T13:23:48;27.20;99.90
52167;DHT22;38149;52.666;6.428;2022-08-04T13:26:16;27.10;99.90
52167;DHT22;38149;52.666;6.428;2022-08-04T13:28:45;27.20;99.90
52167;DHT22;38149;52.666;6.428;2022-08-04T13:31:19;27.10;99.90
52167;DHT22;38149;52.666;6.428;2022-08-04T13:36:22;26.90;99.90
52167;DHT22;38149;52.666;6.428;2022-08-04T13:38:56;27.10;99.90
52167;DHT22;38149;52.666;6.428;2022-08-04T13:41:26;27.30;99.90
52167;DHT22;38149;52.666;6.428;2022-08-04T14:09:40;27.90;99.90
52167;DHT22;38149;52.666;6.428;2022-08-04T14:19:58;27.90;99.90
52167;DHT22;38149;52.666;6.428;2022-08-04T14:25:14;28.10;99.90
52167;DHT22;38149;52.666;6.428;2022-08-04T14:27:43;28.00;99.90
52167;DHT22;38149;52.666;6.428;2022-08-04T14:30:29;28.20;99.90
52167;DHT22;38149;52.666;6.428;2022-08-04T14:33:10;28.20;99.90
52167;DHT22;38149;52.666;6.428;2022-08-04T14:35:37;28.10;99.90
52167;DHT22;38149;52.666;6.428;2022-08-04T14:38:08;28.10;99.90
52167;DHT22;38149;52.666;6.428;2022-08-04T14:40:40;28.20;99.90
52167;DHT22;38149;52.666;6.428;2022-08-04T14:43:08;28.20;99.90
52167;DHT22;38149;52.666;6.428;2022-08-04T14:50:46;28.40;99.90
52167;DHT22;38149;52.666;6.428;2022-08-04T14:55:49;28.50;99.90
52167;DHT22;38149;52.666;6.428;2022-08-04T15:00:56;28.50;99.90
52167;DHT22;38149;52.666;6.428;2022-08-04T15:03:24;28.50;99.90
52167;DHT22;38149;52.666;6.428;2022-08-04T15:15:42;29.00;97.90
52167;DHT22;38149;52.666;6.428;2022-08-04T15:18:09;29.10;98.20
52167;DHT22;38149;52.666;6.428;2022-08-04T15:20:36;29.20;97.60
52167;DHT22;38149;52.666;6.428;2022-08-04T15:23:03;29.50;98.00
52167;DHT22;38149;52.666;6.428;2022-08-04T15:25:42;29.50;98.40
52167;DHT22;38149;52.666;6.428;2022-08-04T15:28:14;29.40;97.40
52167;DHT22;38149;52.666;6.428;2022-08-04T15:30:44;29.50;99.90
52167;DHT22;38149;52.666;6.428;2022-08-04T15:33:12;29.80;99.40
52167;DHT22;38149;52.666;6.428;2022-08-04T15:35:42;29.90;99.90
52167;DHT22;38149;52.666;6.428;2022-08-04T15:38:15;29.70;99.90
52167;DHT22;38149;52.666;6.428;2022-08-04T15:41:15;29.60;97.40
52167;DHT22;38149;52.666;6.428;2022-08-04T15:49:19;29.90;99.90
52167;DHT22;38149;52.666;6.428;2022-08-04T15:51:45;29.40;99.90
52167;DHT22;38149;52.666;6.428;2022-08-04T15:56:43;29.50;99.90
52167;DHT22;38149;52.666;6.428;2022-08-04T15:59:10;29.50;99.90
52167;DHT22;38149;52.666;6.428;2022-08-04T16:01:36;29.30;96.00
52167;DHT22;38149;52.666;6.428;2022-08-04T16:04:23;29.70;99.90
52167;DHT22;38149;52.666;6.428;2022-08-04T16:06:49;29.40;99.90
52167;DHT22;38149;52.666;6.428;2022-08-04T16:09:25;29.40;99.90
52167;DHT22;38149;52.666;6.428;2022-08-04T16:14:30;29.30;96.00
52167;DHT22;38149;52.666;6.428;2022-08-04T16:17:13;29.50;99.90
52167;DHT22;38149;52.666;6.428;2022-08-04T16:22:10;29.50;99.90
52167;DHT22;38149;52.666;6.428;2022-08-04T16:24:39;29.80;99.90
52167;DHT22;38149;52.666;6.428;2022-08-04T16:27:11;29.60;99.90
52167;DHT22;38149;52.666;6.428;2022-08-04T16:29:41;29.50;99.60
52167;DHT22;38149;52.666;6.428;2022-08-04T16:37:10;29.30;99.20
52167;DHT22;38149;52.666;6.428;2022-08-04T16:39:38;29.10;95.10
52167;DHT22;38149;52.666;6.428;2022-08-04T16:50:16;28.80;99.90
52167;DHT22;38149;52.666;6.428;2022-08-04T16:52:47;28.70;99.90
52167;DHT22;38149;52.666;6.428;2022-08-04T16:55:18;28.70;99.90
52167;DHT22;38149;52.666;6.428;2022-08-04T16:57:49;28.40;99.90
52167;DHT22;38149;52.666;6.428;2022-08-04T17:00:17;28.30;98.10
52167;DHT22;38149;52.666;6.428;2022-08-04T17:02:52;28.20;98.40
52167;DHT22;38149;52.666;6.428;2022-08-04T17:05:23;28.30;99.90
52167;DHT22;38149;52.666;6.428;2022-08-04T17:07:57;27.90;99.90
52167;DHT22;38149;52.666;6.428;2022-08-04T17:18:31;27.90;99.30
52167;DHT22;38149;52.666;6.428;2022-08-04T17:21:05;27.80;95.40
52167;DHT22;38149;52.666;6.428;2022-08-04T17:23:37;27.60;95.20
52167;DHT22;38149;52.666;6.428;2022-08-04T17:26:08;27.50;95.30
52167;DHT22;38149;52.666;6.428;2022-08-04T17:28:36;27.50;95.60
52167;DHT22;38149;52.666;6.428;2022-08-04T17:31:05;27.40;95.30
52167;DHT22;38149;52.666;6.428;2022-08-04T17:33:34;27.30;95.40
52167;DHT22;38149;52.666;6.428;2022-08-04T17:54:16;26.70;99.90
52167;DHT22;38149;52.666;6.428;2022-08-04T17:56:49;26.50;96.00
52167;DHT22;38149;52.666;6.428;2022-08-04T18:01:47;26.40;96.20
52167;DHT22;38149;52.666;6.428;2022-08-04T18:07:09;26.20;96.40
52167;DHT22;38149;52.666;6.428;2022-08-04T18:12:23;26.30;99.90
52167;DHT22;38149;52.666;6.428;2022-08-04T18:14:52;26.30;99.90
52167;DHT22;38149;52.666;6.428;2022-08-04T18:17:31;26.30;99.90
52167;DHT22;38149;52.666;6.428;2022-08-04T18:19:58;26.40;99.90
52167;DHT22;38149;52.666;6.428;2022-08-04T18:22:25;26.20;99.90
52167;DHT22;38149;52.666;6.428;2022-08-04T18:24:51;25.70;99.90
52167;DHT22;38149;52.666;6.428;2022-08-04T18:27:24;25.90;97.60
52167;DHT22;38149;52.666;6.428;2022-08-04T18:29:52;26.10;98.70
52167;DHT22;38149;52.666;6.428;2022-08-04T18:32:18;26.10;99.90
52167;DHT22;38149;52.666;6.428;2022-08-04T18:37:11;25.90;99.90
52167;DHT22;38149;52.666;6.428;2022-08-04T18:39:37;25.90;99.90
52167;DHT22;38149;52.666;6.428;2022-08-04T18:42:03;25.70;99.90
52167;DHT22;38149;52.666;6.428;2022-08-04T18:44:30;25.70;99.90
52167;DHT22;38149;52.666;6.428;2022-08-04T18:46:57;25.70;99.90
52167;DHT22;38149;52.666;6.428;2022-08-04T18:51:53;25.60;99.90
52167;DHT22;38149;52.666;6.428;2022-08-04T18:54:23;25.50;99.90
52167;DHT22;38149;52.666;6.428;2022-08-04T18:59:17;25.40;97.20
52167;DHT22;38149;52.666;6.428;2022-08-04T19:01:43;25.40;97.50
52167;DHT22;38149;52.666;6.428;2022-08-04T19:04:09;25.30;99.30
52167;DHT22;38149;52.666;6.428;2022-08-04T19:06:36;25.30;99.90
52167;DHT22;38149;52.666;6.428;2022-08-04T19:09:03;25.10;97.80
52167;DHT22;38149;52.666;6.428;2022-08-04T19:14:03;25.20;99.10
52167;DHT22;38149;52.666;6.428;2022-08-04T19:16:31;25.10;99.90
52167;DHT22;38149;52.666;6.428;2022-08-04T19:18:58;25.10;99.90
52167;DHT22;38149;52.666;6.428;2022-08-04T19:21:27;25.30;99.90
52167;DHT22;38149;52.666;6.428;2022-08-04T19:23:53;25.00;99.90
52167;DHT22;38149;52.666;6.428;2022-08-04T19:28:47;24.80;98.30
52167;DHT22;38149;52.666;6.428;2022-08-04T19:36:06;24.50;98.10
52167;DHT22;38149;52.666;6.428;2022-08-04T19:45:51;24.20;98.00
52167;DHT22;38149;52.666;6.428;2022-08-04T19:48:17;24.20;98.10
52167;DHT22;38149;52.666;6.428;2022-08-04T19:50:43;24.10;98.30
52167;DHT22;38149;52.666;6.428;2022-08-04T19:53:09;24.00;98.40
52167;DHT22;38149;52.666;6.428;2022-08-04T19:55:35;23.90;98.40
52167;DHT22;38149;52.666;6.428;2022-08-04T19:58:04;23.90;98.50
52167;DHT22;38149;52.666;6.428;2022-08-04T20:00:30;23.90;98.60
52167;DHT22;38149;52.666;6.428;2022-08-04T20:02:56;23.90;98.70
52167;DHT22;38149;52.666;6.428;2022-08-04T20:20:02;23.40;99.90
52167;DHT22;38149;52.666;6.428;2022-08-04T20:22:29;23.60;99.90
52167;DHT22;38149;52.666;6.428;2022-08-04T20:24:55;23.50;99.90
52167;DHT22;38149;52.666;6.428;2022-08-04T20:37:21;23.20;99.90
52167;DHT22;38149;52.666;6.428;2022-08-04T20:44:56;22.80;99.90
52167;DHT22;38149;52.666;6.428;2022-08-04T20:47:22;23.60;99.90
52167;DHT22;38149;52.666;6.428;2022-08-04T20:59:40;22.00;99.90
52167;DHT22;38149;52.666;6.428;2022-08-04T21:02:06;22.70;99.90
52167;DHT22;38149;52.666;6.428;2022-08-04T21:04:32;22.70;99.90
52167;DHT22;38149;52.666;6.428;2022-08-04T21:07:09;22.70;99.90
52167;DHT22;38149;52.666;6.428;2022-08-04T21:16:58;21.80;99.90
52167;DHT22;38149;52.666;6.428;2022-08-04T21:19:25;22.60;99.90
52167;DHT22;38149;52.666;6.428;2022-08-04T21:21:52;22.50;99.90
52167;DHT22;38149;52.666;6.428;2022-08-04T21:24:19;22.50;99.90
52167;DHT22;38149;52.666;6.428;2022-08-04T21:26:49;22.50;99.90
52167;DHT22;38149;52.666;6.428;2022-08-04T21:29:17;22.40;99.90
52167;DHT22;38149;52.666;6.428;2022-08-04T21:39:08;22.30;99.90
52167;DHT22;38149;52.666;6.428;2022-08-04T21:41:35;22.20;99.90
52167;DHT22;38149;52.666;6.428;2022-08-04T21:53:48;22.00;99.90
52167;DHT22;38149;52.666;6.428;2022-08-04T21:56:14;21.90;99.90
52167;DHT22;38149;52.666;6.428;2022-08-04T21:58:40;21.80;99.90
52167;DHT22;38149;52.666;6.428;2022-08-04T22:01:08;21.80;99.90
52167;DHT22;38149;52.666;6.428;2022-08-04T22:03:40;21.70;99.90
52167;DHT22;38149;52.666;6.428;2022-08-04T22:06:07;21.70;99.90
52167;DHT22;38149;52.666;6.428;2022-08-04T22:08:35;21.70;99.90
52167;DHT22;38149;52.666;6.428;2022-08-04T22:13:28;21.60;99.90
52167;DHT22;38149;52.666;6.428;2022-08-04T22:15:54;21.50;99.90
52167;DHT22;38149;52.666;6.428;2022-08-04T22:18:20;21.50;99.90
52167;DHT22;38149;52.666;6.428;2022-08-04T22:20:46;21.50;99.90
52167;DHT22;38149;52.666;6.428;2022-08-04T22:23:12;21.80;99.90
52167;DHT22;38149;52.666;6.428;2022-08-04T22:25:38;21.50;99.90
52167;DHT22;38149;52.666;6.428;2022-08-04T22:28:04;21.50;99.90
52167;DHT22;38149;52.666;6.428;2022-08-04T22:30:35;21.50;99.90
52167;DHT22;38149;52.666;6.428;2022-08-04T22:33:02;21.40;99.90
52167;DHT22;38149;52.666;6.428;2022-08-04T22:35:28;21.40;99.90
52167;DHT22;38149;52.666;6.428;2022-08-04T22:37:54;21.50;99.90
52167;DHT22;38149;52.666;6.428;2022-08-04T22:40:22;21.50;99.90
52167;DHT22;38149;52.666;6.428;2022-08-04T22:42:48;21.50;99.90
52167;DHT22;38149;52.666;6.428;2022-08-04T22:45:14;21.50;99.90
52167;DHT22;38149;52.666;6.428;2022-08-04T22:47:39;21.50;99.90
52167;DHT22;38149;52.666;6.428;2022-08-04T22:50:06;21.50;99.90
52167;DHT22;38149;52.666;6.428;2022-08-04T22:52:32;21.50;99.90
52167;DHT22;38149;52.666;6.428;2022-08-04T22:54:58;21.50;99.90
52167;DHT22;38149;52.666;6.428;2022-08-04T22:57:24;21.60;99.90
52167;DHT22;38149;52.666;6.428;2022-08-04T22:59:50;21.40;99.90
52167;DHT22;38149;52.666;6.428;2022-08-04T23:02:16;21.40;99.90
52167;DHT22;38149;52.666;6.428;2022-08-04T23:04:42;21.40;99.90
52167;DHT22;38149;52.666;6.428;2022-08-04T23:07:08;21.40;99.90
52167;DHT22;38149;52.666;6.428;2022-08-04T23:09:34;21.20;99.90
52167;DHT22;38149;52.666;6.428;2022-08-04T23:12:00;21.20;99.90
52167;DHT22;38149;52.666;6.428;2022-08-04T23:14:26;21.00;99.90
52167;DHT22;38149;52.666;6.428;2022-08-04T23:16:51;21.20;99.90
52167;DHT22;38149;52.666;6.428;2022-08-04T23:19:17;21.10;99.90
52167;DHT22;38149;52.666;6.428;2022-08-04T23:21:44;21.10;99.90
52167;DHT22;38149;52.666;6.428;2022-08-04T23:24:10;21.10;99.90
52167;DHT22;38149;52.666;6.428;2022-08-04T23:26:36;21.00;99.90
52167;DHT22;38149;52.666;6.428;2022-08-04T23:29:01;21.00;99.90
52167;DHT22;38149;52.666;6.428;2022-08-04T23:31:27;21.00;99.90
52167;DHT22;38149;52.666;6.428;2022-08-04T23:33:53;21.00;99.90
52167;DHT22;38149;52.666;6.428;2022-08-04T23:36:19;21.00;99.90
52167;DHT22;38149;52.666;6.428;2022-08-04T23:38:45;21.00;99.90
52167;DHT22;38149;52.666;6.428;2022-08-04T23:43:42;21.00;99.90
52167;DHT22;38149;52.666;6.428;2022-08-04T23:46:09;21.00;99.90
52167;DHT22;38149;52.666;6.428;2022-08-04T23:51:12;20.80;99.90
52167;DHT22;38149;52.666;6.428;2022-08-04T23:53:39;20.80;99.90
52167;DHT22;38149;52.666;6.428;2022-08-04T23:56:09;20.80;99.90
52167;DHT22;38149;52.666;6.428;2022-08-04T23:58:36;20.70;99.90
